Latest Coastal Weather Observations for Hamilton Island

IDQ60701

Issued at 12:31 am EST Sunday 6 September 2015 (issued every 10 minutes, with the page automatically refreshed every 10 minutes)

About coastal observations | Map of coastal stations | Coastal observations for QLD | Marine services | Other Formats
Station Details ID: 033106 Name: HAMILTON ISLAND AIRPORT Lat: -20.37 Lon: 148.95 Height: 58.66 m
Data from the previous 72 hours. | See also: Recent months at Hamilton Island
Date/Time
EST
Temp

°C
Wind Pressure Rain
since 9am
mm
Weather Cloud Vis
km
Sea
Height
m
Swell
Dir
 
Speed
knots
Gust
knots
hPa Trend Height
m
Period
s
Dir
06/12:30am 20.8 ESE 10 11 1019.8 - 0.0 - Partly cloudy 10 - - - -
06/12:00am 20.8 ESE 11 13 1019.6 - 0.0 - Mostly clear 10 - - - -
 
Date/Time
EST
Temp

°C
Wind Pressure Rain
since 9am
mm
Weather Cloud Vis
km
Sea
Height
m
Swell
Dir
 
Speed
knots
Gust
knots
hPa Trend Height
m
Period
s
Dir
05/11:30pm 20.5 SE 10 11 1019.9 - 0.0 - Partly cloudy 10 - - - -
05/11:00pm 20.5 SE 9 11 1020.0 - 0.0 - - 10 - - - -
05/10:30pm 20.5 SE 9 11 1020.1 - 0.0 - - 10 - - - -
05/10:00pm 20.9 ESE 8 10 1020.1 - 0.0 - - 10 - - - -
05/09:30pm 21.0 ESE 9 11 1020.2 - 0.0 - - 10 - - - -
05/09:00pm 21.1 E 10 11 1019.8 - 0.0 - - 10 - - - -
05/08:30pm 20.8 E 7 10 1020.0 - 0.0 - - 10 - - - -
05/08:00pm 20.8 E 7 9 1019.7 - 0.0 - - 10 - - - -
05/07:30pm 21.1 E 9 11 1019.5 - 0.0 - - 10 - - - -
05/07:00pm 21.2 E 11 14 1019.1 - 0.0 - - 10 - - - -
05/06:30pm 21.2 ESE 13 15 1018.7 - 0.0 - - 10 - - - -
05/06:00pm 21.3 E 14 16 1018.1 - 0.0 - - 10 - - - -
05/05:30pm 21.4 E 13 16 1018.0 - 0.0 - - 10 - - - -
05/05:00pm 21.5 E 14 17 1017.6 - 0.0 - - 10 - - - -
05/04:30pm 21.8 E 16 19 1017.4 - 0.0 - - 10 - - - -
05/04:00pm 22.0 E 16 19 1017.3 - 0.0 - - 10 - - - -
05/03:30pm 22.1 E 16 18 1017.0 - 0.0 - - 10 - - - -
05/03:00pm 22.3 E 16 19 1017.0 - 0.0 - - 10 - - - -
05/02:30pm 22.7 E 16 18 1017.4 - 0.0 - - 10 - - - -
05/02:00pm 22.7 E 15 18 1017.6 - 0.0 - - 10 - - - -
05/01:30pm 23.2 ESE 13 15 1018.1 - 0.0 - - 10 - - - -
05/01:00pm 23.4 E 13 15 1018.4 - 0.0 - - 10 - - - -
05/12:30pm 23.6 E 12 15 1018.8 - 0.0 - - 10 - - - -
05/12:00pm 23.9 ESE 12 14 1018.9 - 0.0 - - 10 - - - -
05/11:30am 23.7 ESE 11 14 1019.8 - 0.0 - - 10 - - - -
05/11:00am 23.7 ESE 11 13 1020.2 - 0.0 - - 10 - - - -
05/10:30am 23.5 E 11 13 1020.6 - 0.0 - - 10 - - - -
05/10:00am 23.9 SE 12 14 1020.7 - 0.0 - Partly cloudy 10 - - - -
05/09:30am 23.4 ESE 12 14 1020.7 - 0.0 - - 10 - - - -
05/09:00am 23.3 ESE 11 12 1020.4 - 0.0 - - 10 - - - -
05/08:30am 22.8 ESE 11 13 1020.5 - 0.0 - - 10 - - - -
05/08:00am 22.5 ESE 10 12 1020.2 - 0.0 - - 10 - - - -
05/07:30am 21.9 ESE 10 13 1019.8 - 0.0 - - 10 - - - -
05/07:00am 21.3 ESE 10 12 1019.4 - 0.0 - - 10 - - - -
05/06:30am 20.6 SE 10 12 1019.1 - 0.0 - - 10 - - - -
05/06:00am 20.3 SE 10 12 1018.7 - 0.0 - - 10 - - - -
05/05:30am 20.1 SE 10 13 1018.7 - 0.0 - - 10 - - - -
05/05:00am 20.1 SE 9 11 1018.4 - 0.0 - Partly cloudy 10 - - - -
05/04:30am 19.7 SE 6 10 1018.2 - 0.0 - - 10 - - - -
05/04:00am 19.6 SSE 4 6 1018.1 - 0.0 - - 10 - - - -
05/03:30am 19.7 SSW 4 5 1017.9 - 0.0 - - 10 - - - -
05/03:00am 19.9 CALM 0 0 1017.8 - 0.0 - - 10 - - - -
05/02:30am 19.7 CALM 0 0 1018.2 - 0.0 - - 10 - - - -
05/02:00am 19.7 CALM 0 0 1018.4 - 0.0 - - 10 - - - -
05/01:30am 20.0 NE 3 5 1018.8 - 0.0 - - 10 - - - -
05/01:00am 19.8 NE 5 5 1019.0 - 0.0 - - 10 - - - -
05/12:30am 19.8 NE 4 5 1019.1 - 0.0 - - 10 - - - -
05/12:00am 20.1 NE 4 5 1019.2 - 0.0 - - 10 - - - -
 
Date/Time
EST
Temp

°C
Wind Pressure Rain
since 9am
mm
Weather Cloud Vis
km
Sea
Height
m
Swell
Dir
 
Speed
knots
Gust
knots
hPa Trend Height
m
Period
s
Dir
04/11:30pm 20.3 NNE 2 4 1019.7 - 0.0 - - 10 - - - -
04/11:00pm 20.3 NE 4 5 1019.8 - 0.0 - - 10 - - - -
04/10:30pm 20.3 NE 6 7 1019.7 - 0.0 - - 10 - - - -
04/10:00pm 20.6 ENE 6 8 1019.7 - 0.0 - - 10 - - - -
04/09:30pm 20.9 E 8 10 1019.6 - 0.0 - - 10 - - - -
04/09:00pm 20.9 E 7 9 1019.1 - 0.0 - - 10 - - - -
04/08:30pm 21.1 E 10 13 1019.0 - 0.0 - - 10 - - - -
04/08:00pm 21.3 E 10 13 1018.8 - 0.0 - - 10 - - - -
04/07:30pm 21.2 E 9 11 1018.4 - 0.0 - - 10 - - - -
04/07:00pm 21.2 E 9 11 1018.1 - 0.0 - - 10 - - - -
04/06:30pm 21.2 E 11 13 1017.6 - 0.0 - - 10 - - - -
04/06:00pm 21.4 ENE 11 14 1017.1 - 0.0 - - 10 - - - -
04/05:30pm 21.6 E 11 15 1017.1 - 0.0 - - 10 - - - -
04/05:00pm 21.8 E 13 19 1016.9 - 0.0 - - 10 - - - -
04/04:30pm 21.8 E 14 18 1016.6 - 0.0 - - 10 - - - -
04/04:00pm 21.8 E 16 19 1016.4 - 0.0 - - 10 - - - -
04/03:30pm 22.2 E 15 17 1016.4 - 0.0 - - 10 - - - -
04/03:00pm 22.3 ESE 15 18 1016.3 - 0.0 - - 10 - - - -
04/02:30pm 22.2 E 16 19 1016.7 - 0.0 - - 10 - - - -
04/02:00pm 22.5 E 17 20 1017.0 - 0.0 - - 10 - - - -
04/01:30pm 23.1 E 15 18 1017.5 - 0.0 - - - - - - -
04/01:00pm 23.8 SE 13 15 1018.1 - 0.0 - - - - - - -
04/12:30pm 24.2 SSE 14 17 1018.6 - 0.0 - - - - - - -
04/12:00pm 24.3 SE 15 18 1018.8 - 0.0 - - - - - - -
04/11:30am 24.3 SE 15 19 1019.4 - 0.0 - - - - - - -
04/11:00am 23.3 SSE 18 22 1019.8 - 0.0 - - 10 - - - -
04/10:30am 22.9 SSE 19 21 1020.0 - 0.0 - - 10 - - - -
04/10:00am 22.9 SSE 21 24 1020.2 - 0.0 - - - - - - -
04/09:30am 23.0 SSE 22 25 1020.0 - 0.0 - - - - - - -
04/09:00am 23.5 SSE 24 27 1019.4 - 0.0 - - - - - - -
04/08:30am 23.5 SSE 17 21 1019.5 - 0.0 - - 10 - - - -
04/08:00am 23.6 S 12 18 1019.1 - 0.0 - - 10 - - - -
04/07:30am 23.3 S 13 19 1018.8 - 0.0 - - 10 - - - -
04/07:00am 23.0 S 15 20 1018.5 - 0.0 - - 10 - - - -
04/06:30am 22.6 S 12 16 1018.1 - 0.0 - - 10 - - - -
04/06:00am 22.4 S 14 17 1017.4 - 0.0 - - 10 - - - -
04/05:30am 22.6 S 14 19 1017.3 - 0.0 - - 10 - - - -
04/05:00am 22.5 S 13 17 1016.9 - 0.0 - - 10 - - - -
04/04:30am 21.7 S 12 16 1016.7 - 0.0 - - 10 - - - -
04/04:00am 22.0 S 11 15 1016.5 - 0.0 - - 10 - - - -
04/03:30am 21.4 SSW 10 11 1016.6 - 0.0 - - 10 - - - -
04/03:00am 21.5 WSW 6 7 1016.5 - 0.0 - - 10 - - - -
04/02:30am 22.0 SW 9 12 1016.7 - 0.0 - - 10 - - - -
04/02:00am 22.5 SSW 5 10 1017.1 - 0.0 - - 10 - - - -
04/01:30am 22.6 WSW 6 10 1017.2 - 0.0 - - 10 - - - -
04/01:00am 21.5 WNW 2 4 1017.3 - 0.0 - - 10 - - - -
04/12:30am 21.8 WNW 6 8 1017.5 - 0.0 - - 10 - - - -
04/12:00am 22.0 NW 5 8 1017.3 - 0.0 - - 10 - - - -
 
Date/Time
EST
Temp

°C
Wind Pressure Rain
since 9am
mm
Weather Cloud Vis
km
Sea
Height
m
Swell
Dir
 
Speed
knots
Gust
knots
hPa Trend Height
m
Period
s
Dir
03/11:30pm 22.3 NW 9 13 1017.3 - 0.0 - - 10 - - - -
03/11:00pm 22.5 NW 13 15 1017.3 - 0.0 - - 10 - - - -
03/10:30pm 22.7 NNW 15 18 1017.1 - 0.0 - - 10 - - - -
03/10:00pm 22.8 NNW 18 21 1017.0 - 0.0 - - 10 - - - -
03/09:30pm 22.9 NNW 18 22 1016.7 - 0.0 - - 10 - - - -
03/09:00pm 23.0 NNW 20 24 1016.3 - 0.0 - - 10 - - - -
03/08:30pm 23.1 NNW 20 25 1016.3 - 0.0 - - 10 - - - -
03/08:00pm 23.2 NNW 20 25 1016.1 - 0.0 - - 10 - - - -
03/07:30pm 23.2 NNW 22 26 1015.5 - 0.0 - - 10 - - - -
03/07:00pm 23.3 NW 22 27 1015.1 - 0.0 - - 10 - - - -
03/06:30pm 23.3 NNW 20 27 1014.7 - 0.0 - - 10 - - - -
03/06:00pm 23.4 NW 23 29 1014.3 - 0.0 - - 10 - - - -
03/05:30pm 23.7 NNW 24 31 1013.9 - 0.0 - - 10 - - - -
03/05:00pm 24.1 NW 24 31 1013.8 - 0.0 - - 10 - - - -
03/04:30pm 24.5 NNW 26 31 1013.5 - 0.0 - - 10 - - - -
03/04:00pm 24.8 NNW 24 32 1013.7 - 0.0 - - 10 - - - -
03/03:30pm 24.8 NNW 26 31 1013.6 - 0.0 - - 10 - - - -
03/03:00pm 25.0 NNW 25 31 1013.4 - 0.0 - - 10 - - - -
03/02:30pm 25.5 NNW 25 32 1014.1 - 0.0 - - 10 - - - -
03/02:00pm 25.2 NNW 26 32 1014.4 - 0.0 - - 10 - - - -
03/01:30pm 25.8 NNW 22 30 1015.0 - 0.0 - - 10 - - - -
03/01:00pm 25.2 NNW 25 31 1015.2 - 0.0 - - 10 - - - -
03/12:30pm 25.2 NNW 25 32 1015.8 - 0.0 - - 10 - - - -
03/12:00pm 25.4 NNW 24 31 1016.1 - 0.0 - - 10 - - - -
03/11:30am 25.6 NNW 22 27 1016.9 - 0.0 - Partly cloudy 10 - - - -
03/11:00am 25.4 NNW 21 27 1017.6 - 0.0 - Partly cloudy 10 - - - -
03/10:30am 24.6 NNW 22 28 1018.0 - 0.0 - Partly cloudy 10 - - - -
03/10:00am 24.7 NNW 20 26 1018.1 - 0.0 - - 10 - - - -
03/09:30am 24.5 NNW 19 25 1018.3 - 0.0 - - 10 - - - -
03/09:00am 24.0 NW 20 25 1017.8 - 0.0 - Mostly clear - - - - -
03/08:30am 23.7 NW 21 26 1017.9 - 0.0 - Partly cloudy 10 - - - -
03/08:00am 23.4 NW 20 25 1017.6 - 0.0 - Partly cloudy 10 - - - -
03/07:30am 23.1 NW 18 26 1017.6 - 0.0 - Partly cloudy 10 - - - -
03/07:00am 22.8 NW 19 24 1017.1 - 0.0 - - 10 - - - -
03/06:30am 22.7 NW 18 24 1016.7 - 0.0 - Partly cloudy 10 - - - -
03/06:00am 22.6 NW 18 24 1016.2 - 0.0 - - 10 - - - -
03/05:30am 22.7 NNW 19 23 1016.1 - 0.0 - Partly cloudy 10 - - - -
03/05:00am 22.6 NNW 15 19 1015.7 - 0.0 - Partly cloudy 10 - - - -
03/04:30am 22.6 NNW 17 22 1015.4 - 0.0 - Partly cloudy 10 - - - -
03/04:00am 22.7 NNW 17 22 1015.3 - 0.0 - Partly cloudy 10 - - - -
03/03:53am 22.7 NNW 16 22 1015.3 - 0.0 - Partly cloudy 10 - - - -
03/03:36am 22.7 NNW 13 19 1015.4 - 0.0 - Partly cloudy 10 - - - -
03/03:30am 22.8 NNW 13 18 1015.4 - 0.0 - Partly cloudy 10 - - - -
03/03:00am 22.7 NNW 14 18 1015.3 - 0.0 - Mostly cloudy 10 - - - -
03/02:30am 22.5 N 10 13 1015.8 - 0.0 - Partly cloudy 10 - - - -
03/02:00am 22.3 N 10 14 1015.7 - 0.0 - Partly cloudy 10 - - - -
03/01:30am 22.4 N 10 14 1015.9 - 0.0 - Partly cloudy 10 - - - -
03/01:00am 22.5 N 9 11 1016.2 - 0.0 - Partly cloudy 10 - - - -

Other Formats:

Comma delimited format used in spreadsheet applications
http://www.bom.gov.au/fwo/IDQ60701/IDQ60701.94368.axf

JavaScript Object Notation format (JSON) in row-major order
http://www.bom.gov.au/fwo/IDQ60701/IDQ60701.94368.json